sensor_id;sensor_type;location;lat;lon;timestamp;temperature;humidity
44215;DHT22;29884;47.450;19.124;2024-01-25T00:01:07;7.40;99.90
44215;DHT22;29884;47.450;19.124;2024-01-25T00:03:32;7.50;99.90
44215;DHT22;29884;47.450;19.124;2024-01-25T00:05:58;7.80;99.90
44215;DHT22;29884;47.450;19.124;2024-01-25T00:08:23;7.70;99.90
44215;DHT22;29884;47.450;19.124;2024-01-25T00:10:49;7.80;99.90
44215;DHT22;29884;47.450;19.124;2024-01-25T00:13:14;7.70;99.90
44215;DHT22;29884;47.450;19.124;2024-01-25T00:15:40;7.80;99.90
44215;DHT22;29884;47.450;19.124;2024-01-25T00:18:06;7.70;99.90
44215;DHT22;29884;47.450;19.124;2024-01-25T00:20:31;7.60;99.90
44215;DHT22;29884;47.450;19.124;2024-01-25T00:22:57;7.70;99.90
44215;DHT22;29884;47.450;19.124;2024-01-25T00:25:22;8.10;99.90
44215;DHT22;29884;47.450;19.124;2024-01-25T00:27:48;8.00;99.90
44215;DHT22;29884;47.450;19.124;2024-01-25T00:30:14;7.80;99.90
44215;DHT22;29884;47.450;19.124;2024-01-25T00:32:39;8.00;99.90
44215;DHT22;29884;47.450;19.124;2024-01-25T00:35:05;8.20;99.90
44215;DHT22;29884;47.450;19.124;2024-01-25T00:37:31;8.20;99.90
44215;DHT22;29884;47.450;19.124;2024-01-25T00:39:57;8.30;99.90
44215;DHT22;29884;47.450;19.124;2024-01-25T00:42:23;8.30;99.90
44215;DHT22;29884;47.450;19.124;2024-01-25T00:44:49;8.10;99.90
44215;DHT22;29884;47.450;19.124;2024-01-25T00:47:15;8.10;99.90
44215;DHT22;29884;47.450;19.124;2024-01-25T00:49:41;8.20;99.90
44215;DHT22;29884;47.450;19.124;2024-01-25T00:52:07;8.30;99.90
44215;DHT22;29884;47.450;19.124;2024-01-25T00:54:33;8.40;99.90
44215;DHT22;29884;47.450;19.124;2024-01-25T00:56:59;8.40;99.90
44215;DHT22;29884;47.450;19.124;2024-01-25T00:59:25;8.30;99.90
44215;DHT22;29884;47.450;19.124;2024-01-25T01:01:52;8.20;99.90
44215;DHT22;29884;47.450;19.124;2024-01-25T01:04:18;8.20;99.90
44215;DHT22;29884;47.450;19.124;2024-01-25T01:06:44;8.40;99.90
44215;DHT22;29884;47.450;19.124;2024-01-25T01:09:10;8.40;99.90
44215;DHT22;29884;47.450;19.124;2024-01-25T01:11:38;8.30;99.90
44215;DHT22;29884;47.450;19.124;2024-01-25T01:14:04;8.50;99.90
44215;DHT22;29884;47.450;19.124;2024-01-25T01:16:29;8.40;99.90
44215;DHT22;29884;47.450;19.124;2024-01-25T01:18:58;8.40;99.90
44215;DHT22;29884;47.450;19.124;2024-01-25T01:21:36;8.40;99.90
44215;DHT22;29884;47.450;19.124;2024-01-25T01:24:04;8.30;99.90
44215;DHT22;29884;47.450;19.124;2024-01-25T01:26:29;8.30;99.90
44215;DHT22;29884;47.450;19.124;2024-01-25T01:28:55;8.30;99.90
44215;DHT22;29884;47.450;19.124;2024-01-25T01:31:20;8.20;99.90
44215;DHT22;29884;47.450;19.124;2024-01-25T01:33:46;8.20;99.90
44215;DHT22;29884;47.450;19.124;2024-01-25T01:36:12;8.50;99.90
44215;DHT22;29884;47.450;19.124;2024-01-25T01:38:38;8.60;99.90
44215;DHT22;29884;47.450;19.124;2024-01-25T01:41:03;8.60;99.90
44215;DHT22;29884;47.450;19.124;2024-01-25T01:43:29;8.60;99.90
44215;DHT22;29884;47.450;19.124;2024-01-25T01:46:02;8.60;99.90
44215;DHT22;29884;47.450;19.124;2024-01-25T01:48:28;8.50;99.90
44215;DHT22;29884;47.450;19.124;2024-01-25T01:50:54;8.40;99.90
44215;DHT22;29884;47.450;19.124;2024-01-25T01:53:19;8.50;99.90
44215;DHT22;29884;47.450;19.124;2024-01-25T01:55:45;8.40;99.90
44215;DHT22;29884;47.450;19.124;2024-01-25T01:58:11;8.40;99.90
44215;DHT22;29884;47.450;19.124;2024-01-25T02:00:37;8.30;99.90
44215;DHT22;29884;47.450;19.124;2024-01-25T02:03:04;8.40;99.90
44215;DHT22;29884;47.450;19.124;2024-01-25T02:05:29;8.50;99.90
44215;DHT22;29884;47.450;19.124;2024-01-25T02:07:55;8.60;99.90
44215;DHT22;29884;47.450;19.124;2024-01-25T02:10:21;8.60;99.90
44215;DHT22;29884;47.450;19.124;2024-01-25T02:12:46;8.70;99.90
44215;DHT22;29884;47.450;19.124;2024-01-25T02:15:12;8.70;99.90
44215;DHT22;29884;47.450;19.124;2024-01-25T02:17:38;8.90;99.90
44215;DHT22;29884;47.450;19.124;2024-01-25T02:20:04;8.80;99.90
44215;DHT22;29884;47.450;19.124;2024-01-25T02:22:30;8.80;99.90
44215;DHT22;29884;47.450;19.124;2024-01-25T02:24:55;8.70;99.90
44215;DHT22;29884;47.450;19.124;2024-01-25T02:27:21;8.90;99.90
44215;DHT22;29884;47.450;19.124;2024-01-25T02:29:46;8.80;99.90
44215;DHT22;29884;47.450;19.124;2024-01-25T02:32:12;8.70;99.90
44215;DHT22;29884;47.450;19.124;2024-01-25T02:34:38;8.80;99.90
44215;DHT22;29884;47.450;19.124;2024-01-25T02:37:03;8.80;99.90
44215;DHT22;29884;47.450;19.124;2024-01-25T02:39:29;8.90;99.90
44215;DHT22;29884;47.450;19.124;2024-01-25T02:41:54;8.70;99.90
44215;DHT22;29884;47.450;19.124;2024-01-25T02:44:20;8.70;99.90
44215;DHT22;29884;47.450;19.124;2024-01-25T02:46:45;8.70;99.90
44215;DHT22;29884;47.450;19.124;2024-01-25T02:49:12;8.90;99.90
44215;DHT22;29884;47.450;19.124;2024-01-25T02:51:37;9.00;99.90
44215;DHT22;29884;47.450;19.124;2024-01-25T02:54:03;9.10;99.70
44215;DHT22;29884;47.450;19.124;2024-01-25T02:56:29;9.00;99.90
44215;DHT22;29884;47.450;19.124;2024-01-25T02:59:00;9.00;99.90
44215;DHT22;29884;47.450;19.124;2024-01-25T03:01:26;8.80;99.90
44215;DHT22;29884;47.450;19.124;2024-01-25T03:03:52;8.80;99.90
44215;DHT22;29884;47.450;19.124;2024-01-25T03:06:17;8.80;99.90
44215;DHT22;29884;47.450;19.124;2024-01-25T03:08:43;8.90;99.90
44215;DHT22;29884;47.450;19.124;2024-01-25T03:11:08;8.80;99.90
44215;DHT22;29884;47.450;19.124;2024-01-25T03:13:34;8.90;99.90
44215;DHT22;29884;47.450;19.124;2024-01-25T03:16:00;8.90;99.90
44215;DHT22;29884;47.450;19.124;2024-01-25T03:18:25;9.00;99.90
44215;DHT22;29884;47.450;19.124;2024-01-25T03:20:51;8.90;99.90
44215;DHT22;29884;47.450;19.124;2024-01-25T03:23:17;8.90;99.90
44215;DHT22;29884;47.450;19.124;2024-01-25T03:25:42;9.00;99.90
44215;DHT22;29884;47.450;19.124;2024-01-25T03:28:08;8.90;99.90
44215;DHT22;29884;47.450;19.124;2024-01-25T03:30:34;8.90;99.90
44215;DHT22;29884;47.450;19.124;2024-01-25T03:33:00;9.10;99.90
44215;DHT22;29884;47.450;19.124;2024-01-25T03:35:26;9.10;99.90
44215;DHT22;29884;47.450;19.124;2024-01-25T03:37:51;8.90;99.90
44215;DHT22;29884;47.450;19.124;2024-01-25T03:40:17;8.90;99.90
44215;DHT22;29884;47.450;19.124;2024-01-25T03:42:42;9.00;99.90
44215;DHT22;29884;47.450;19.124;2024-01-25T03:45:08;9.00;99.90
44215;DHT22;29884;47.450;19.124;2024-01-25T03:47:34;8.90;99.90
44215;DHT22;29884;47.450;19.124;2024-01-25T03:49:59;9.00;99.90
44215;DHT22;29884;47.450;19.124;2024-01-25T03:52:25;9.10;99.90
44215;DHT22;29884;47.450;19.124;2024-01-25T03:54:51;9.00;99.90
44215;DHT22;29884;47.450;19.124;2024-01-25T03:57:16;8.90;99.90
44215;DHT22;29884;47.450;19.124;2024-01-25T03:59:42;8.90;99.90
44215;DHT22;29884;47.450;19.124;2024-01-25T04:02:08;8.90;99.90
44215;DHT22;29884;47.450;19.124;2024-01-25T04:04:34;9.00;99.90
44215;DHT22;29884;47.450;19.124;2024-01-25T04:07:00;8.90;99.90
44215;DHT22;29884;47.450;19.124;2024-01-25T04:09:25;8.90;99.90
44215;DHT22;29884;47.450;19.124;2024-01-25T04:11:51;8.80;99.90
44215;DHT22;29884;47.450;19.124;2024-01-25T04:14:17;8.80;99.90
44215;DHT22;29884;47.450;19.124;2024-01-25T04:16:42;9.00;99.90
44215;DHT22;29884;47.450;19.124;2024-01-25T04:19:08;8.80;99.90
44215;DHT22;29884;47.450;19.124;2024-01-25T04:21:37;8.80;99.90
44215;DHT22;29884;47.450;19.124;2024-01-25T04:24:03;8.70;99.90
44215;DHT22;29884;47.450;19.124;2024-01-25T04:26:29;8.60;99.90
44215;DHT22;29884;47.450;19.124;2024-01-25T04:28:55;8.60;99.90
44215;DHT22;29884;47.450;19.124;2024-01-25T04:31:20;8.60;99.90
44215;DHT22;29884;47.450;19.124;2024-01-25T04:33:46;8.70;99.90
44215;DHT22;29884;47.450;19.124;2024-01-25T04:36:12;8.70;99.90
44215;DHT22;29884;47.450;19.124;2024-01-25T04:38:37;8.80;99.90
44215;DHT22;29884;47.450;19.124;2024-01-25T04:41:03;8.70;99.90
44215;DHT22;29884;47.450;19.124;2024-01-25T04:43:34;8.60;99.90
44215;DHT22;29884;47.450;19.124;2024-01-25T04:46:00;8.40;99.90
44215;DHT22;29884;47.450;19.124;2024-01-25T04:48:25;8.70;99.90
44215;DHT22;29884;47.450;19.124;2024-01-25T04:50:51;8.80;99.90
44215;DHT22;29884;47.450;19.124;2024-01-25T04:53:16;8.70;99.90
44215;DHT22;29884;47.450;19.124;2024-01-25T04:55:42;8.60;99.90
44215;DHT22;29884;47.450;19.124;2024-01-25T04:58:08;8.50;99.90
44215;DHT22;29884;47.450;19.124;2024-01-25T05:00:33;8.70;99.90
44215;DHT22;29884;47.450;19.124;2024-01-25T05:02:59;8.60;99.90
44215;DHT22;29884;47.450;19.124;2024-01-25T05:05:24;8.50;99.90
44215;DHT22;29884;47.450;19.124;2024-01-25T05:07:50;8.60;99.90
44215;DHT22;29884;47.450;19.124;2024-01-25T05:10:15;8.60;99.90
44215;DHT22;29884;47.450;19.124;2024-01-25T05:12:41;8.60;99.90
44215;DHT22;29884;47.450;19.124;2024-01-25T05:15:07;8.50;99.90
44215;DHT22;29884;47.450;19.124;2024-01-25T05:17:33;8.60;99.90
44215;DHT22;29884;47.450;19.124;2024-01-25T05:19:59;8.70;99.90
44215;DHT22;29884;47.450;19.124;2024-01-25T05:22:24;8.70;99.90
44215;DHT22;29884;47.450;19.124;2024-01-25T05:24:50;8.50;99.90
44215;DHT22;29884;47.450;19.124;2024-01-25T05:27:15;8.40;99.90
44215;DHT22;29884;47.450;19.124;2024-01-25T05:29:41;8.50;99.90
44215;DHT22;29884;47.450;19.124;2024-01-25T05:32:06;8.60;99.90
44215;DHT22;29884;47.450;19.124;2024-01-25T05:34:32;8.50;99.90
44215;DHT22;29884;47.450;19.124;2024-01-25T05:36:58;8.60;99.90
44215;DHT22;29884;47.450;19.124;2024-01-25T05:39:24;8.50;99.90
44215;DHT22;29884;47.450;19.124;2024-01-25T05:41:50;8.60;99.90
44215;DHT22;29884;47.450;19.124;2024-01-25T05:44:15;8.70;99.90
44215;DHT22;29884;47.450;19.124;2024-01-25T05:46:41;8.60;99.90
44215;DHT22;29884;47.450;19.124;2024-01-25T05:49:06;8.70;99.90
44215;DHT22;29884;47.450;19.124;2024-01-25T05:51:32;8.50;99.90
44215;DHT22;29884;47.450;19.124;2024-01-25T05:53:57;8.60;99.90
44215;DHT22;29884;47.450;19.124;2024-01-25T05:56:23;8.50;99.90
44215;DHT22;29884;47.450;19.124;2024-01-25T05:58:49;8.50;99.90
44215;DHT22;29884;47.450;19.124;2024-01-25T06:01:14;8.50;99.90
44215;DHT22;29884;47.450;19.124;2024-01-25T06:03:40;8.40;99.90
44215;DHT22;29884;47.450;19.124;2024-01-25T06:06:06;8.60;99.90
44215;DHT22;29884;47.450;19.124;2024-01-25T06:08:33;8.40;99.90
44215;DHT22;29884;47.450;19.124;2024-01-25T06:10:59;8.40;99.90
44215;DHT22;29884;47.450;19.124;2024-01-25T06:13:25;8.60;99.90
44215;DHT22;29884;47.450;19.124;2024-01-25T06:15:50;8.50;99.90
44215;DHT22;29884;47.450;19.124;2024-01-25T06:18:16;8.60;99.90
44215;DHT22;29884;47.450;19.124;2024-01-25T06:20:41;8.50;99.90
44215;DHT22;29884;47.450;19.124;2024-01-25T06:23:07;8.50;99.90
44215;DHT22;29884;47.450;19.124;2024-01-25T06:25:32;8.50;99.90
44215;DHT22;29884;47.450;19.124;2024-01-25T06:28:00;8.50;99.90
44215;DHT22;29884;47.450;19.124;2024-01-25T06:30:25;8.60;99.90
44215;DHT22;29884;47.450;19.124;2024-01-25T06:32:51;8.60;99.90
44215;DHT22;29884;47.450;19.124;2024-01-25T06:35:17;8.60;99.90
44215;DHT22;29884;47.450;19.124;2024-01-25T06:37:42;8.60;99.90
44215;DHT22;29884;47.450;19.124;2024-01-25T06:40:08;8.60;99.90
44215;DHT22;29884;47.450;19.124;2024-01-25T06:42:34;8.70;99.90
44215;DHT22;29884;47.450;19.124;2024-01-25T06:44:59;8.70;99.90
44215;DHT22;29884;47.450;19.124;2024-01-25T06:47:25;8.60;99.90
44215;DHT22;29884;47.450;19.124;2024-01-25T06:49:50;8.60;99.90
44215;DHT22;29884;47.450;19.124;2024-01-25T06:52:18;8.70;99.90
44215;DHT22;29884;47.450;19.124;2024-01-25T06:54:44;8.60;99.90
44215;DHT22;29884;47.450;19.124;2024-01-25T06:57:09;8.80;99.90
44215;DHT22;29884;47.450;19.124;2024-01-25T06:59:35;8.90;99.90
44215;DHT22;29884;47.450;19.124;2024-01-25T07:02:00;8.90;99.90
44215;DHT22;29884;47.450;19.124;2024-01-25T07:04:28;8.90;99.90
44215;DHT22;29884;47.450;19.124;2024-01-25T07:06:54;9.00;99.90
44215;DHT22;29884;47.450;19.124;2024-01-25T07:09:20;9.00;99.90
44215;DHT22;29884;47.450;19.124;2024-01-25T07:11:46;9.10;99.90
44215;DHT22;29884;47.450;19.124;2024-01-25T07:14:11;9.10;99.90
44215;DHT22;29884;47.450;19.124;2024-01-25T07:16:37;9.10;99.90
44215;DHT22;29884;47.450;19.124;2024-01-25T07:19:03;9.10;99.90
44215;DHT22;29884;47.450;19.124;2024-01-25T07:21:28;9.10;99.80
44215;DHT22;29884;47.450;19.124;2024-01-25T07:23:59;9.10;99.90
44215;DHT22;29884;47.450;19.124;2024-01-25T07:26:25;9.10;99.50
44215;DHT22;29884;47.450;19.124;2024-01-25T07:28:50;9.20;99.60
44215;DHT22;29884;47.450;19.124;2024-01-25T07:31:20;9.10;99.30
44215;DHT22;29884;47.450;19.124;2024-01-25T07:33:45;9.20;99.10
44215;DHT22;29884;47.450;19.124;2024-01-25T07:36:11;9.20;98.30
44215;DHT22;29884;47.450;19.124;2024-01-25T07:38:36;9.30;98.50
44215;DHT22;29884;47.450;19.124;2024-01-25T07:41:02;9.30;98.10
44215;DHT22;29884;47.450;19.124;2024-01-25T07:43:28;9.20;98.10
44215;DHT22;29884;47.450;19.124;2024-01-25T07:45:53;9.30;97.90
44215;DHT22;29884;47.450;19.124;2024-01-25T07:48:19;9.30;97.70
44215;DHT22;29884;47.450;19.124;2024-01-25T07:50:44;9.40;96.30
44215;DHT22;29884;47.450;19.124;2024-01-25T07:53:10;9.50;96.10
44215;DHT22;29884;47.450;19.124;2024-01-25T07:55:37;9.50;96.10
44215;DHT22;29884;47.450;19.124;2024-01-25T07:58:03;9.50;95.50
44215;DHT22;29884;47.450;19.124;2024-01-25T08:00:28;9.50;96.20
44215;DHT22;29884;47.450;19.124;2024-01-25T08:02:54;9.50;96.30
44215;DHT22;29884;47.450;19.124;2024-01-25T08:05:19;9.50;95.50
44215;DHT22;29884;47.450;19.124;2024-01-25T08:07:45;9.60;94.70
44215;DHT22;29884;47.450;19.124;2024-01-25T08:10:12;9.60;94.10
44215;DHT22;29884;47.450;19.124;2024-01-25T08:12:38;9.70;92.50
44215;DHT22;29884;47.450;19.124;2024-01-25T08:15:07;9.70;92.80
44215;DHT22;29884;47.450;19.124;2024-01-25T08:17:33;9.80;91.90
44215;DHT22;29884;47.450;19.124;2024-01-25T08:20:01;9.80;92.00
44215;DHT22;29884;47.450;19.124;2024-01-25T08:22:27;9.80;90.00
44215;DHT22;29884;47.450;19.124;2024-01-25T08:24:53;9.90;89.80
44215;DHT22;29884;47.450;19.124;2024-01-25T08:27:19;9.90;89.70
44215;DHT22;29884;47.450;19.124;2024-01-25T08:29:45;9.90;89.10
44215;DHT22;29884;47.450;19.124;2024-01-25T08:32:10;10.00;89.10
44215;DHT22;29884;47.450;19.124;2024-01-25T08:34:36;10.10;89.00
44215;DHT22;29884;47.450;19.124;2024-01-25T08:37:02;10.10;88.40
44215;DHT22;29884;47.450;19.124;2024-01-25T08:39:27;10.10;88.90
44215;DHT22;29884;47.450;19.124;2024-01-25T08:41:53;10.10;86.60
44215;DHT22;29884;47.450;19.124;2024-01-25T08:44:19;10.20;87.10
44215;DHT22;29884;47.450;19.124;2024-01-25T08:46:44;10.20;86.50
44215;DHT22;29884;47.450;19.124;2024-01-25T08:49:10;10.20;86.90
44215;DHT22;29884;47.450;19.124;2024-01-25T08:51:38;10.30;87.00
44215;DHT22;29884;47.450;19.124;2024-01-25T08:54:03;10.30;88.40
44215;DHT22;29884;47.450;19.124;2024-01-25T08:56:29;10.30;88.90
44215;DHT22;29884;47.450;19.124;2024-01-25T08:58:55;10.30;89.20
44215;DHT22;29884;47.450;19.124;2024-01-25T09:01:20;10.30;88.50
44215;DHT22;29884;47.450;19.124;2024-01-25T09:03:46;10.30;89.20
44215;DHT22;29884;47.450;19.124;2024-01-25T09:06:12;10.40;88.30
44215;DHT22;29884;47.450;19.124;2024-01-25T09:08:38;10.40;89.30
44215;DHT22;29884;47.450;19.124;2024-01-25T09:11:03;10.40;87.70
44215;DHT22;29884;47.450;19.124;2024-01-25T09:13:29;10.40;87.80
44215;DHT22;29884;47.450;19.124;2024-01-25T09:15:55;10.40;88.70
44215;DHT22;29884;47.450;19.124;2024-01-25T09:18:21;10.40;86.60
44215;DHT22;29884;47.450;19.124;2024-01-25T09:20:46;10.50;87.80
44215;DHT22;29884;47.450;19.124;2024-01-25T09:23:14;10.50;86.60
44215;DHT22;29884;47.450;19.124;2024-01-25T09:25:45;10.60;87.60
44215;DHT22;29884;47.450;19.124;2024-01-25T09:28:10;10.50;86.50
44215;DHT22;29884;47.450;19.124;2024-01-25T09:30:40;10.50;87.90
44215;DHT22;29884;47.450;19.124;2024-01-25T09:33:06;10.60;89.10
44215;DHT22;29884;47.450;19.124;2024-01-25T09:35:32;10.60;88.00
44215;DHT22;29884;47.450;19.124;2024-01-25T09:37:57;10.60;86.80
44215;DHT22;29884;47.450;19.124;2024-01-25T09:40:23;10.70;87.00
44215;DHT22;29884;47.450;19.124;2024-01-25T09:42:49;10.60;87.30
44215;DHT22;29884;47.450;19.124;2024-01-25T09:45:18;10.60;85.30
44215;DHT22;29884;47.450;19.124;2024-01-25T09:47:45;10.60;85.30
44215;DHT22;29884;47.450;19.124;2024-01-25T09:50:10;10.60;84.80
44215;DHT22;29884;47.450;19.124;2024-01-25T09:52:38;10.60;83.30
44215;DHT22;29884;47.450;19.124;2024-01-25T09:55:06;10.60;84.40
44215;DHT22;29884;47.450;19.124;2024-01-25T09:57:35;10.80;83.40
44215;DHT22;29884;47.450;19.124;2024-01-25T10:00:03;10.80;81.40
44215;DHT22;29884;47.450;19.124;2024-01-25T10:02:29;10.90;83.10
44215;DHT22;29884;47.450;19.124;2024-01-25T10:04:54;10.80;81.70
44215;DHT22;29884;47.450;19.124;2024-01-25T10:10:04;10.60;83.60
44215;DHT22;29884;47.450;19.124;2024-01-25T10:12:31;10.60;85.10
44215;DHT22;29884;47.450;19.124;2024-01-25T10:14:57;10.70;80.30
44215;DHT22;29884;47.450;19.124;2024-01-25T10:17:22;10.80;79.70
44215;DHT22;29884;47.450;19.124;2024-01-25T10:19:48;10.80;79.80
44215;DHT22;29884;47.450;19.124;2024-01-25T10:22:14;10.80;82.50
44215;DHT22;29884;47.450;19.124;2024-01-25T10:24:40;10.60;82.80
44215;DHT22;29884;47.450;19.124;2024-01-25T10:27:07;10.50;83.70
44215;DHT22;29884;47.450;19.124;2024-01-25T10:29:34;10.50;83.80
44215;DHT22;29884;47.450;19.124;2024-01-25T10:32:01;10.40;83.10
44215;DHT22;29884;47.450;19.124;2024-01-25T10:34:29;10.40;83.80
44215;DHT22;29884;47.450;19.124;2024-01-25T10:36:55;10.40;84.00
44215;DHT22;29884;47.450;19.124;2024-01-25T10:39:22;10.60;84.10
44215;DHT22;29884;47.450;19.124;2024-01-25T10:41:47;10.50;83.20
44215;DHT22;29884;47.450;19.124;2024-01-25T10:44:19;10.40;82.60
44215;DHT22;29884;47.450;19.124;2024-01-25T10:46:48;10.40;82.80
44215;DHT22;29884;47.450;19.124;2024-01-25T10:49:14;10.50;80.40
44215;DHT22;29884;47.450;19.124;2024-01-25T10:51:41;10.60;81.30
44215;DHT22;29884;47.450;19.124;2024-01-25T10:54:11;10.70;80.10
44215;DHT22;29884;47.450;19.124;2024-01-25T10:56:38;10.70;80.00
44215;DHT22;29884;47.450;19.124;2024-01-25T10:59:06;10.60;79.30
44215;DHT22;29884;47.450;19.124;2024-01-25T11:01:34;10.50;79.90
44215;DHT22;29884;47.450;19.124;2024-01-25T11:04:00;10.30;79.20
44215;DHT22;29884;47.450;19.124;2024-01-25T11:06:27;10.30;80.30
44215;DHT22;29884;47.450;19.124;2024-01-25T11:09:04;10.60;80.20
44215;DHT22;29884;47.450;19.124;2024-01-25T11:11:31;10.50;76.20
44215;DHT22;29884;47.450;19.124;2024-01-25T11:13:58;10.60;73.90
44215;DHT22;29884;47.450;19.124;2024-01-25T11:16:30;10.60;77.20
44215;DHT22;29884;47.450;19.124;2024-01-25T11:18:57;10.70;75.60
44215;DHT22;29884;47.450;19.124;2024-01-25T11:21:40;10.50;74.40
44215;DHT22;29884;47.450;19.124;2024-01-25T11:24:21;10.60;75.90
44215;DHT22;29884;47.450;19.124;2024-01-25T11:26:47;10.60;72.60
44215;DHT22;29884;47.450;19.124;2024-01-25T11:29:16;10.60;73.10
44215;DHT22;29884;47.450;19.124;2024-01-25T11:31:46;10.70;73.10
44215;DHT22;29884;47.450;19.124;2024-01-25T11:34:13;10.60;70.40
44215;DHT22;29884;47.450;19.124;2024-01-25T11:36:40;10.60;72.40
44215;DHT22;29884;47.450;19.124;2024-01-25T11:39:11;10.60;72.60
44215;DHT22;29884;47.450;19.124;2024-01-25T11:41:37;10.60;73.70
44215;DHT22;29884;47.450;19.124;2024-01-25T11:44:03;10.60;73.30
44215;DHT22;29884;47.450;19.124;2024-01-25T11:46:30;10.60;73.50
44215;DHT22;29884;47.450;19.124;2024-01-25T11:48:57;10.70;73.50
44215;DHT22;29884;47.450;19.124;2024-01-25T11:51:23;10.80;74.00
44215;DHT22;29884;47.450;19.124;2024-01-25T11:53:48;10.80;71.40
44215;DHT22;29884;47.450;19.124;2024-01-25T11:56:18;10.80;68.90
44215;DHT22;29884;47.450;19.124;2024-01-25T11:58:45;10.70;69.20
44215;DHT22;29884;47.450;19.124;2024-01-25T12:01:11;10.60;69.20
44215;DHT22;29884;47.450;19.124;2024-01-25T12:03:37;10.70;72.40
44215;DHT22;29884;47.450;19.124;2024-01-25T12:06:04;10.80;71.50
44215;DHT22;29884;47.450;19.124;2024-01-25T12:08:31;10.70;69.90
44215;DHT22;29884;47.450;19.124;2024-01-25T12:11:05;10.70;70.00
44215;DHT22;29884;47.450;19.124;2024-01-25T12:13:35;10.70;69.70
44215;DHT22;29884;47.450;19.124;2024-01-25T12:16:01;10.70;69.90
44215;DHT22;29884;47.450;19.124;2024-01-25T12:18:28;10.70;68.90
44215;DHT22;29884;47.450;19.124;2024-01-25T12:20:54;10.60;68.30
44215;DHT22;29884;47.450;19.124;2024-01-25T12:23:19;10.60;67.50
44215;DHT22;29884;47.450;19.124;2024-01-25T12:25:45;10.60;68.00
44215;DHT22;29884;47.450;19.124;2024-01-25T12:28:11;10.60;67.80
44215;DHT22;29884;47.450;19.124;2024-01-25T12:30:36;10.60;68.00
44215;DHT22;29884;47.450;19.124;2024-01-25T12:33:03;10.80;67.60
44215;DHT22;29884;47.450;19.124;2024-01-25T12:35:29;10.70;67.20
44215;DHT22;29884;47.450;19.124;2024-01-25T12:37:54;10.70;66.80
44215;DHT22;29884;47.450;19.124;2024-01-25T12:40:20;10.60;66.30
44215;DHT22;29884;47.450;19.124;2024-01-25T12:42:46;10.60;66.70
44215;DHT22;29884;47.450;19.124;2024-01-25T12:45:11;10.50;64.70
44215;DHT22;29884;47.450;19.124;2024-01-25T12:47:37;10.60;64.60
44215;DHT22;29884;47.450;19.124;2024-01-25T12:50:02;10.60;63.80
44215;DHT22;29884;47.450;19.124;2024-01-25T12:52:29;10.60;65.10
44215;DHT22;29884;47.450;19.124;2024-01-25T12:54:54;10.50;64.40
44215;DHT22;29884;47.450;19.124;2024-01-25T12:57:20;10.60;65.30
44215;DHT22;29884;47.450;19.124;2024-01-25T12:59:46;10.60;65.00
44215;DHT22;29884;47.450;19.124;2024-01-25T13:02:12;10.60;64.40
44215;DHT22;29884;47.450;19.124;2024-01-25T13:04:38;10.60;63.60
44215;DHT22;29884;47.450;19.124;2024-01-25T13:07:03;10.60;65.30
44215;DHT22;29884;47.450;19.124;2024-01-25T13:09:29;10.60;63.40
44215;DHT22;29884;47.450;19.124;2024-01-25T13:11:59;10.50;65.00
44215;DHT22;29884;47.450;19.124;2024-01-25T13:14:24;10.50;62.40
44215;DHT22;29884;47.450;19.124;2024-01-25T13:16:50;10.50;64.60
44215;DHT22;29884;47.450;19.124;2024-01-25T13:19:16;10.50;63.90
44215;DHT22;29884;47.450;19.124;2024-01-25T13:21:41;10.50;65.80
44215;DHT22;29884;47.450;19.124;2024-01-25T13:24:07;10.50;66.20
44215;DHT22;29884;47.450;19.124;2024-01-25T13:26:35;10.40;65.90
44215;DHT22;29884;47.450;19.124;2024-01-25T13:29:01;10.30;67.00
44215;DHT22;29884;47.450;19.124;2024-01-25T13:31:26;10.40;67.90
44215;DHT22;29884;47.450;19.124;2024-01-25T13:33:52;10.40;67.60
44215;DHT22;29884;47.450;19.124;2024-01-25T13:36:17;10.40;68.20
44215;DHT22;29884;47.450;19.124;2024-01-25T13:38:43;10.40;67.30
44215;DHT22;29884;47.450;19.124;2024-01-25T13:41:09;10.40;68.00
44215;DHT22;29884;47.450;19.124;2024-01-25T13:43:34;10.30;67.90
44215;DHT22;29884;47.450;19.124;2024-01-25T13:46:00;10.30;68.20
44215;DHT22;29884;47.450;19.124;2024-01-25T13:48:26;10.30;67.90
44215;DHT22;29884;47.450;19.124;2024-01-25T13:50:51;10.30;69.00
44215;DHT22;29884;47.450;19.124;2024-01-25T13:53:17;10.30;69.00
44215;DHT22;29884;47.450;19.124;2024-01-25T13:55:43;10.30;68.10
44215;DHT22;29884;47.450;19.124;2024-01-25T13:58:09;10.20;68.70
44215;DHT22;29884;47.450;19.124;2024-01-25T14:00:35;10.10;68.20
44215;DHT22;29884;47.450;19.124;2024-01-25T14:03:00;10.00;69.40
44215;DHT22;29884;47.450;19.124;2024-01-25T14:05:26;10.00;70.20
44215;DHT22;29884;47.450;19.124;2024-01-25T14:07:51;10.00;69.10
44215;DHT22;29884;47.450;19.124;2024-01-25T14:10:17;10.00;69.10
44215;DHT22;29884;47.450;19.124;2024-01-25T14:12:43;10.00;71.00
44215;DHT22;29884;47.450;19.124;2024-01-25T14:15:09;9.90;71.10
44215;DHT22;29884;47.450;19.124;2024-01-25T14:17:35;9.90;70.80
44215;DHT22;29884;47.450;19.124;2024-01-25T14:20:02;9.90;71.30
44215;DHT22;29884;47.450;19.124;2024-01-25T14:22:29;9.80;70.60
44215;DHT22;29884;47.450;19.124;2024-01-25T14:24:55;9.80;70.70
44215;DHT22;29884;47.450;19.124;2024-01-25T14:27:21;9.80;70.40
44215;DHT22;29884;47.450;19.124;2024-01-25T14:29:46;9.80;71.60
44215;DHT22;29884;47.450;19.124;2024-01-25T14:32:12;9.80;71.80
44215;DHT22;29884;47.450;19.124;2024-01-25T14:34:37;9.70;71.70
44215;DHT22;29884;47.450;19.124;2024-01-25T14:37:03;9.70;72.60
44215;DHT22;29884;47.450;19.124;2024-01-25T14:39:29;9.60;72.20
44215;DHT22;29884;47.450;19.124;2024-01-25T14:41:54;9.60;72.10
44215;DHT22;29884;47.450;19.124;2024-01-25T14:44:20;9.60;73.10
44215;DHT22;29884;47.450;19.124;2024-01-25T14:46:46;9.60;72.50
44215;DHT22;29884;47.450;19.124;2024-01-25T14:49:12;9.60;71.90
44215;DHT22;29884;47.450;19.124;2024-01-25T14:51:37;9.60;71.70
44215;DHT22;29884;47.450;19.124;2024-01-25T14:54:03;9.50;73.20
44215;DHT22;29884;47.450;19.124;2024-01-25T14:56:29;9.50;73.40
44215;DHT22;29884;47.450;19.124;2024-01-25T14:58:54;9.40;73.00
44215;DHT22;29884;47.450;19.124;2024-01-25T15:01:20;9.40;72.50
44215;DHT22;29884;47.450;19.124;2024-01-25T15:03:53;9.40;72.30
44215;DHT22;29884;47.450;19.124;2024-01-25T15:06:18;9.40;72.90
44215;DHT22;29884;47.450;19.124;2024-01-25T15:08:44;9.40;73.00
44215;DHT22;29884;47.450;19.124;2024-01-25T15:11:09;9.30;73.20
44215;DHT22;29884;47.450;19.124;2024-01-25T15:13:35;9.30;73.40
44215;DHT22;29884;47.450;19.124;2024-01-25T15:16:01;9.30;73.50
44215;DHT22;29884;47.450;19.124;2024-01-25T15:18:27;9.20;74.30
44215;DHT22;29884;47.450;19.124;2024-01-25T15:20:52;9.20;74.80